createdAt,value
2019-05-20T00:00:05.288Z,16.80
2019-05-20T00:02:34.322Z,16.80
2019-05-20T00:05:03.460Z,16.70
2019-05-20T00:07:32.551Z,16.70
2019-05-20T00:10:01.557Z,16.60
2019-05-20T00:12:30.501Z,16.80
2019-05-20T00:14:59.574Z,17.00
2019-05-20T00:17:28.899Z,17.10
2019-05-20T00:19:58.048Z,17.00
2019-05-20T00:22:27.109Z,17.00
2019-05-20T00:24:56.103Z,16.80
2019-05-20T00:27:25.148Z,16.70
2019-05-20T00:29:54.118Z,16.80
2019-05-20T00:32:22.986Z,16.90
2019-05-20T00:34:52.084Z,17.00
2019-05-20T00:37:21.021Z,17.00
2019-05-20T00:39:49.939Z,17.10
2019-05-20T00:42:18.903Z,17.20
2019-05-20T00:44:47.870Z,17.30
2019-05-20T00:47:16.862Z,17.30
2019-05-20T00:49:45.762Z,17.30
2019-05-20T00:52:14.780Z,17.30
2019-05-20T00:54:43.979Z,17.10
2019-05-20T00:57:12.959Z,17.00
2019-05-20T00:59:42.065Z,17.00
2019-05-20T01:02:11.182Z,17.10
2019-05-20T01:04:40.111Z,16.90
2019-05-20T01:07:09.146Z,16.70
2019-05-20T01:09:38.031Z,16.60
2019-05-20T01:12:07.087Z,16.50
2019-05-20T01:14:36.060Z,16.40
2019-05-20T01:17:05.422Z,16.30
2019-05-20T01:19:34.302Z,16.40
2019-05-20T01:22:03.218Z,16.50
2019-05-20T01:24:32.110Z,16.60
2019-05-20T01:27:01.001Z,16.60
2019-05-20T01:29:29.956Z,16.50
2019-05-20T01:31:58.867Z,16.40
2019-05-20T01:34:27.888Z,16.40
2019-05-20T01:36:56.934Z,16.40
2019-05-20T01:39:25.912Z,16.40
2019-05-20T01:41:55.015Z,16.30
2019-05-20T01:44:23.918Z,16.10
2019-05-20T01:46:52.895Z,16.00
2019-05-20T01:49:21.833Z,15.90
2019-05-20T01:51:50.795Z,15.90
2019-05-20T01:54:19.728Z,15.80
2019-05-20T01:56:48.697Z,15.80
2019-05-20T01:59:17.646Z,15.80
2019-05-20T02:01:46.599Z,15.80
2019-05-20T02:04:15.482Z,15.80
2019-05-20T02:06:44.452Z,15.80
2019-05-20T02:09:13.479Z,15.90
2019-05-20T02:11:42.529Z,15.90
2019-05-20T02:14:16.464Z,15.90
2019-05-20T02:16:45.489Z,15.80
2019-05-20T02:19:14.495Z,15.70
2019-05-20T02:21:43.467Z,15.60
2019-05-20T02:24:12.422Z,15.50
2019-05-20T02:26:41.342Z,15.40
2019-05-20T02:29:10.239Z,15.40
2019-05-20T02:31:39.271Z,15.30
2019-05-20T02:34:08.272Z,15.20
2019-05-20T02:36:37.348Z,15.20
2019-05-20T02:39:07.283Z,15.30
2019-05-20T02:41:36.419Z,15.30
2019-05-20T02:44:05.956Z,15.50
2019-05-20T02:46:34.919Z,15.70
2019-05-20T02:49:04.019Z,16.00
2019-05-20T02:51:33.313Z,15.90
2019-05-20T02:54:02.823Z,15.90
2019-05-20T02:56:32.001Z,16.00
2019-05-20T02:59:01.417Z,16.00
2019-05-20T03:01:30.463Z,16.20
2019-05-20T03:04:10.714Z,16.30
2019-05-20T03:06:30.128Z,16.50
2019-05-20T03:08:59.250Z,16.60
2019-05-20T03:11:28.140Z,16.60
2019-05-20T03:13:57.005Z,16.40
2019-05-20T03:16:25.963Z,16.20
2019-05-20T03:18:55.059Z,16.00
2019-05-20T03:21:24.267Z,15.90
2019-05-20T03:23:53.861Z,15.80
2019-05-20T03:26:22.789Z,16.00
2019-05-20T03:28:51.789Z,15.90
2019-05-20T03:31:20.859Z,16.00
2019-05-20T03:33:49.901Z,16.20
2019-05-20T03:36:19.058Z,16.10
2019-05-20T03:38:48.119Z,16.20
2019-05-20T03:41:17.139Z,16.10
2019-05-20T03:43:46.176Z,16.10
2019-05-20T03:46:15.127Z,16.00
2019-05-20T03:48:44.109Z,15.90
2019-05-20T03:51:13.123Z,15.90
2019-05-20T03:53:42.095Z,15.70
2019-05-20T03:56:11.127Z,15.80
2019-05-20T03:58:40.094Z,15.80
2019-05-20T04:01:09.302Z,15.70
2019-05-20T04:03:38.259Z,15.60
2019-05-20T04:06:07.220Z,15.40
2019-05-20T04:08:36.260Z,15.50
2019-05-20T04:11:05.291Z,15.50
2019-05-20T04:13:34.974Z,15.40
2019-05-20T04:16:04.192Z,15.40
2019-05-20T04:18:33.099Z,15.50
2019-05-20T04:21:02.083Z,15.50
2019-05-20T04:23:31.213Z,15.60
2019-05-20T04:26:00.241Z,15.60
2019-05-20T04:28:29.161Z,15.60
2019-05-20T04:30:58.221Z,15.70
2019-05-20T04:33:27.336Z,15.80
2019-05-20T04:35:56.368Z,16.10
2019-05-20T04:38:25.407Z,16.10
2019-05-20T04:40:54.283Z,16.20
2019-05-20T04:43:23.325Z,16.20
2019-05-20T04:45:52.275Z,16.10
2019-05-20T04:48:21.262Z,16.10
2019-05-20T04:50:50.215Z,16.10
2019-05-20T04:53:19.196Z,16.00
2019-05-20T04:55:48.184Z,15.80
2019-05-20T04:58:17.163Z,15.70
2019-05-20T05:00:54.849Z,15.60
2019-05-20T05:03:24.083Z,15.60
2019-05-20T05:05:53.409Z,15.40
2019-05-20T05:08:22.870Z,15.50
2019-05-20T05:10:52.273Z,15.50
2019-05-20T05:13:22.143Z,15.50
2019-05-20T05:15:51.464Z,15.50
2019-05-20T05:18:20.631Z,15.40
2019-05-20T05:20:49.672Z,15.60
2019-05-20T05:23:18.984Z,15.80
2019-05-20T05:25:47.948Z,15.90
2019-05-20T05:28:17.054Z,15.80
2019-05-20T05:30:47.527Z,15.80
2019-05-20T05:33:16.707Z,15.90
2019-05-20T05:35:53.389Z,15.90
2019-05-20T05:38:16.415Z,15.90
2019-05-20T05:40:45.307Z,16.00
2019-05-20T05:43:14.306Z,16.00
2019-05-20T05:45:43.273Z,16.10
2019-05-20T05:48:12.341Z,16.20
2019-05-20T05:50:41.378Z,16.20
2019-05-20T05:53:10.373Z,16.30
2019-05-20T05:55:39.268Z,16.20
2019-05-20T05:58:08.969Z,16.10
2019-05-20T06:00:38.232Z,16.10
2019-05-20T06:03:07.268Z,16.10
2019-05-20T06:05:36.305Z,16.00
2019-05-20T06:08:06.077Z,16.00
2019-05-20T06:10:36.081Z,16.00
2019-05-20T06:13:05.587Z,16.10
2019-05-20T06:15:34.643Z,16.10
2019-05-20T06:18:03.993Z,16.10
2019-05-20T06:20:33.034Z,16.10
2019-05-20T06:23:02.134Z,16.20
2019-05-20T06:25:31.184Z,16.10
2019-05-20T06:28:00.355Z,16.10
2019-05-20T06:30:41.858Z,16.00
2019-05-20T06:33:11.224Z,16.00
2019-05-20T06:35:40.550Z,16.20
2019-05-20T06:38:14.562Z,16.20
2019-05-20T06:40:43.459Z,16.30
2019-05-20T06:43:12.416Z,16.50
2019-05-20T06:45:41.472Z,16.70
2019-05-20T06:48:10.431Z,16.90
2019-05-20T06:50:39.495Z,17.00
2019-05-20T06:53:08.439Z,17.00
2019-05-20T06:55:37.494Z,17.00
2019-05-20T06:58:06.473Z,16.90
2019-05-20T07:00:36.691Z,16.90
2019-05-20T07:03:06.551Z,16.80
2019-05-20T07:05:35.522Z,16.70
2019-05-20T07:08:04.648Z,16.60
2019-05-20T07:10:33.747Z,16.50
2019-05-20T07:13:02.694Z,16.40
2019-05-20T07:15:31.666Z,16.50
2019-05-20T07:18:00.691Z,16.50
2019-05-20T07:20:29.655Z,16.40
2019-05-20T07:22:58.915Z,16.60
2019-05-20T07:25:28.057Z,16.60
2019-05-20T07:27:57.231Z,16.70
2019-05-20T07:30:26.332Z,16.80
2019-05-20T07:32:57.066Z,16.90
2019-05-20T07:35:30.798Z,16.90
2019-05-20T07:37:57.908Z,16.90
2019-05-20T07:40:33.975Z,16.80
2019-05-20T07:43:04.307Z,16.90
2019-05-20T07:45:36.357Z,16.90
2019-05-20T07:48:06.415Z,17.00
2019-05-20T07:50:38.818Z,17.20
2019-05-20T07:53:08.797Z,17.30
2019-05-20T07:55:42.727Z,17.30
2019-05-20T07:58:13.427Z,17.30
2019-05-20T08:00:42.757Z,17.40
2019-05-20T08:03:11.886Z,17.40
2019-05-20T08:05:41.021Z,17.50
2019-05-20T08:08:09.991Z,17.60
2019-05-20T08:10:38.922Z,17.70
2019-05-20T08:13:07.864Z,17.70
2019-05-20T08:15:36.876Z,17.80
2019-05-20T08:18:05.982Z,17.80
2019-05-20T08:20:35.022Z,18.00
2019-05-20T08:23:04.072Z,18.20
2019-05-20T08:25:33.137Z,18.40
2019-05-20T08:28:02.279Z,18.60
2019-05-20T08:30:34.151Z,18.90
2019-05-20T08:33:03.325Z,19.00
2019-05-20T08:35:32.382Z,19.20
2019-05-20T08:38:01.581Z,19.40
2019-05-20T08:40:30.698Z,19.80
2019-05-20T08:42:59.689Z,20.20
2019-05-20T08:45:28.835Z,20.30
2019-05-20T08:47:58.243Z,20.50
2019-05-20T08:50:27.372Z,20.70
2019-05-20T08:52:56.432Z,21.10
2019-05-20T08:55:25.533Z,21.40
2019-05-20T08:57:54.514Z,21.80
2019-05-20T09:00:24.550Z,22.00
2019-05-20T09:02:54.104Z,22.10
2019-05-20T09:05:23.106Z,22.20
2019-05-20T09:08:02.108Z,22.40
2019-05-20T09:10:23.016Z,22.50
2019-05-20T09:12:52.146Z,22.50
2019-05-20T09:15:22.232Z,22.60
2019-05-20T09:17:51.298Z,22.60
2019-05-20T09:20:20.611Z,22.80
2019-05-20T09:22:49.834Z,23.10
2019-05-20T09:25:23.007Z,22.90
2019-05-20T09:27:52.122Z,23.00
2019-05-20T09:30:21.758Z,23.30
2019-05-20T09:32:51.202Z,23.50
2019-05-20T09:35:20.109Z,23.70
2019-05-20T09:37:49.152Z,23.80
2019-05-20T09:40:35.193Z,24.00
2019-05-20T09:43:04.313Z,24.10
2019-05-20T09:45:33.526Z,24.10
2019-05-20T09:48:02.580Z,24.00
2019-05-20T09:50:33.266Z,24.10
2019-05-20T09:53:06.488Z,24.10
2019-05-20T09:55:33.324Z,23.90
2019-05-20T09:58:02.422Z,23.80
2019-05-20T10:00:31.523Z,23.60
2019-05-20T10:03:00.747Z,23.80
2019-05-20T10:05:29.907Z,23.90
2019-05-20T10:07:58.884Z,24.10
2019-05-20T10:10:28.131Z,24.30
2019-05-20T10:12:57.203Z,24.50
2019-05-20T10:15:26.582Z,24.60
2019-05-20T10:17:55.650Z,24.80
2019-05-20T10:20:24.765Z,24.80
2019-05-20T10:22:54.238Z,25.00
2019-05-20T10:25:23.476Z,25.10
2019-05-20T10:27:52.612Z,24.90
2019-05-20T10:30:21.792Z,24.90
2019-05-20T10:32:50.863Z,24.80
2019-05-20T10:35:20.256Z,24.60
2019-05-20T10:37:49.248Z,24.60
2019-05-20T10:40:18.403Z,24.80
2019-05-20T10:42:47.477Z,24.90
2019-05-20T10:45:16.963Z,24.90
2019-05-20T10:47:46.023Z,24.50
2019-05-20T10:50:15.576Z,24.60
2019-05-20T10:52:44.656Z,24.80
2019-05-20T10:55:13.860Z,24.80
2019-05-20T10:57:42.972Z,25.00
2019-05-20T11:00:12.488Z,25.10
2019-05-20T11:02:41.657Z,25.10
2019-05-20T11:05:10.843Z,25.10
2019-05-20T11:07:39.948Z,25.10
2019-05-20T11:10:10.224Z,25.00
2019-05-20T11:12:39.307Z,24.70
2019-05-20T11:15:09.479Z,24.70
2019-05-20T11:17:38.463Z,24.60
2019-05-20T11:20:08.020Z,24.70
2019-05-20T11:22:37.007Z,24.60
2019-05-20T11:25:06.116Z,24.70
2019-05-20T11:27:35.157Z,24.70
2019-05-20T11:30:04.799Z,24.70
2019-05-20T11:32:33.892Z,24.70
2019-05-20T11:35:03.031Z,24.50
2019-05-20T11:37:32.357Z,24.40
2019-05-20T11:40:01.324Z,24.30
2019-05-20T11:42:30.306Z,24.00
2019-05-20T11:44:59.281Z,23.90
2019-05-20T11:47:28.185Z,23.80
2019-05-20T11:49:57.080Z,23.80
2019-05-20T11:52:26.062Z,23.90
2019-05-20T11:54:54.979Z,23.90
2019-05-20T11:57:24.006Z,23.90
2019-05-20T11:59:53.183Z,24.00
2019-05-20T12:02:22.130Z,23.70
2019-05-20T12:04:51.048Z,23.60
2019-05-20T12:07:20.178Z,23.50
2019-05-20T12:09:50.264Z,23.50
2019-05-20T12:12:19.572Z,23.60
2019-05-20T12:14:48.697Z,23.70
2019-05-20T12:17:17.651Z,23.80
2019-05-20T12:19:46.736Z,23.90
2019-05-20T12:22:15.897Z,23.90
2019-05-20T12:24:44.998Z,23.90
2019-05-20T12:27:13.957Z,24.00
2019-05-20T12:29:42.902Z,24.10
2019-05-20T12:32:11.936Z,24.10
2019-05-20T12:34:41.010Z,24.10
2019-05-20T12:37:10.081Z,23.90
2019-05-20T12:39:39.075Z,23.80
2019-05-20T12:42:08.026Z,23.70
2019-05-20T12:44:37.192Z,23.80
2019-05-20T12:47:06.289Z,23.80
2019-05-20T12:49:35.436Z,23.70
2019-05-20T12:52:04.625Z,23.60
2019-05-20T12:54:33.656Z,23.50
2019-05-20T12:57:02.695Z,23.50
2019-05-20T12:59:31.700Z,23.50
2019-05-20T13:02:00.592Z,23.50
2019-05-20T13:04:29.583Z,23.50
2019-05-20T13:06:58.451Z,23.50
2019-05-20T13:09:27.470Z,23.40
2019-05-20T13:11:56.362Z,23.40
2019-05-20T13:14:25.305Z,23.30
2019-05-20T13:16:54.198Z,23.20
2019-05-20T13:19:23.267Z,23.10
2019-05-20T13:21:52.233Z,23.00
2019-05-20T13:24:21.196Z,23.20
2019-05-20T13:26:50.155Z,23.20
2019-05-20T13:29:19.158Z,23.40
2019-05-20T13:31:48.099Z,23.30
2019-05-20T13:34:18.593Z,23.20
2019-05-20T13:36:47.860Z,23.40
2019-05-20T13:39:16.774Z,23.30
2019-05-20T13:41:45.888Z,23.30
2019-05-20T13:44:14.847Z,23.20
2019-05-20T13:46:43.729Z,23.10
2019-05-20T13:49:12.689Z,23.20
2019-05-20T13:51:41.657Z,23.30
2019-05-20T13:54:10.790Z,23.40
2019-05-20T13:56:40.030Z,23.30
2019-05-20T13:59:09.023Z,23.30
2019-05-20T14:01:38.064Z,23.20
2019-05-20T14:04:07.168Z,23.40
2019-05-20T14:06:36.195Z,23.60
2019-05-20T14:09:07.547Z,23.70
2019-05-20T14:11:36.774Z,23.80
2019-05-20T14:14:05.866Z,23.60
2019-05-20T14:16:34.829Z,23.40
2019-05-20T14:19:03.859Z,23.40
2019-05-20T14:21:32.879Z,23.40
2019-05-20T14:24:01.909Z,23.20
2019-05-20T14:26:30.875Z,23.20
2019-05-20T14:28:59.919Z,23.20
2019-05-20T14:31:28.868Z,23.30
2019-05-20T14:33:57.794Z,23.40
2019-05-20T14:36:39.351Z,23.40
2019-05-20T14:38:57.403Z,23.30
2019-05-20T14:41:26.367Z,23.30
2019-05-20T14:43:55.262Z,23.20
2019-05-20T14:46:24.179Z,23.30
2019-05-20T14:48:53.203Z,23.30
2019-05-20T14:51:22.102Z,23.40
2019-05-20T14:53:51.130Z,23.50
2019-05-20T14:56:20.183Z,23.40
2019-05-20T14:58:49.176Z,23.30
2019-05-20T15:01:18.269Z,23.20
2019-05-20T15:03:47.306Z,23.20
2019-05-20T15:06:16.451Z,23.30
2019-05-20T15:08:45.402Z,23.40
2019-05-20T15:11:14.454Z,23.50
2019-05-20T15:13:43.435Z,23.50
2019-05-20T15:16:12.520Z,23.50
2019-05-20T15:18:41.528Z,23.40
2019-05-20T15:21:10.653Z,23.20
2019-05-20T15:23:39.750Z,23.20
2019-05-20T15:26:09.010Z,23.10
2019-05-20T15:28:38.097Z,23.10
2019-05-20T15:31:07.140Z,23.10
2019-05-20T15:33:36.103Z,23.00
2019-05-20T15:36:05.115Z,23.00
2019-05-20T15:38:34.115Z,22.90
2019-05-20T15:41:03.088Z,22.90
2019-05-20T15:43:31.974Z,22.90
2019-05-20T15:46:01.071Z,22.90
2019-05-20T15:48:30.164Z,22.90
2019-05-20T15:50:59.154Z,22.90
2019-05-20T15:53:28.105Z,22.80
2019-05-20T15:55:57.226Z,22.80
2019-05-20T15:58:26.245Z,22.80
2019-05-20T16:00:55.235Z,22.80
2019-05-20T16:03:24.309Z,22.80
2019-05-20T16:05:53.426Z,22.80
2019-05-20T16:08:22.310Z,22.80
2019-05-20T16:10:51.254Z,22.90
2019-05-20T16:13:20.239Z,22.90
2019-05-20T16:15:49.230Z,22.90
2019-05-20T16:18:18.572Z,22.80
2019-05-20T16:20:47.763Z,22.80
2019-05-20T16:23:16.856Z,22.80
2019-05-20T16:25:45.939Z,22.90
2019-05-20T16:28:14.874Z,22.90
2019-05-20T16:30:43.817Z,22.90
2019-05-20T16:33:12.952Z,22.90
2019-05-20T16:35:42.063Z,22.90
2019-05-20T16:38:11.099Z,23.00
2019-05-20T16:40:40.156Z,23.00
2019-05-20T16:43:09.048Z,23.00
2019-05-20T16:45:37.978Z,23.00
2019-05-20T16:48:07.611Z,23.00
2019-05-20T16:50:36.692Z,22.90
2019-05-20T16:53:05.936Z,22.80
2019-05-20T16:55:34.916Z,22.80
2019-05-20T16:58:03.989Z,22.70
2019-05-20T17:00:33.009Z,22.60
2019-05-20T17:03:02.108Z,22.60
2019-05-20T17:05:31.189Z,22.50
2019-05-20T17:08:00.272Z,22.40
2019-05-20T17:10:29.227Z,22.40
2019-05-20T17:12:58.220Z,22.30
2019-05-20T17:15:27.219Z,22.30
2019-05-20T17:17:56.344Z,22.20
2019-05-20T17:20:25.422Z,22.20
2019-05-20T17:22:54.730Z,22.10
2019-05-20T17:25:23.949Z,22.10
2019-05-20T17:27:53.002Z,22.10
2019-05-20T17:30:21.963Z,22.10
2019-05-20T17:32:50.955Z,22.00
2019-05-20T17:35:20.097Z,22.00
2019-05-20T17:37:49.092Z,22.00
2019-05-20T17:40:18.813Z,21.90
2019-05-20T17:42:47.882Z,21.80
2019-05-20T17:45:17.575Z,21.80
2019-05-20T17:47:46.685Z,21.70
2019-05-20T17:50:17.686Z,21.70
2019-05-20T17:52:46.811Z,21.70
2019-05-20T17:55:16.287Z,21.70
2019-05-20T17:57:45.405Z,21.60
2019-05-20T18:00:19.061Z,21.60
2019-05-20T18:02:48.199Z,21.60
2019-05-20T18:05:17.631Z,21.50
2019-05-20T18:07:46.799Z,21.50
2019-05-20T18:10:18.520Z,21.50
2019-05-20T18:12:47.652Z,21.50
2019-05-20T18:15:17.938Z,21.50
2019-05-20T18:17:46.985Z,21.40
2019-05-20T18:20:16.715Z,21.40
2019-05-20T18:22:46.010Z,21.40
2019-05-20T18:25:15.433Z,21.30
2019-05-20T18:27:44.405Z,21.30
2019-05-20T18:30:14.259Z,21.30
2019-05-20T18:32:43.306Z,21.20
2019-05-20T18:35:12.632Z,21.20
2019-05-20T18:37:41.715Z,21.10
2019-05-20T18:40:14.425Z,21.10
2019-05-20T18:42:42.242Z,21.00
2019-05-20T18:45:11.988Z,20.90
2019-05-20T18:47:41.141Z,20.90
2019-05-20T18:50:10.666Z,20.80
2019-05-20T18:52:39.854Z,20.80
2019-05-20T18:55:08.936Z,20.70
2019-05-20T18:57:38.094Z,20.50
2019-05-20T19:00:08.635Z,20.40
2019-05-20T19:02:37.765Z,20.30
2019-05-20T19:05:07.663Z,20.20
2019-05-20T19:07:36.798Z,20.00
2019-05-20T19:10:06.954Z,20.00
2019-05-20T19:12:36.011Z,19.90
2019-05-20T19:15:05.756Z,19.90
2019-05-20T19:17:35.534Z,19.80
2019-05-20T19:20:05.133Z,19.60
2019-05-20T19:22:34.314Z,19.60
2019-05-20T19:25:05.034Z,19.50
2019-05-20T19:27:34.128Z,19.50
2019-05-20T19:30:03.191Z,19.40
2019-05-20T19:32:32.178Z,19.40
2019-05-20T19:35:01.143Z,19.30
2019-05-20T19:37:30.260Z,19.30
2019-05-20T19:39:59.235Z,19.20
2019-05-20T19:42:28.286Z,19.20
2019-05-20T19:44:57.344Z,19.10
2019-05-20T19:47:26.433Z,19.10
2019-05-20T19:49:56.683Z,19.10
2019-05-20T19:52:25.592Z,19.00
2019-05-20T19:54:54.474Z,18.80
2019-05-20T19:57:23.483Z,18.70
2019-05-20T19:59:52.673Z,18.60
2019-05-20T20:02:21.847Z,18.60
2019-05-20T20:04:51.050Z,18.60
2019-05-20T20:07:20.104Z,18.60
2019-05-20T20:09:49.110Z,18.60
2019-05-20T20:12:18.216Z,18.60
2019-05-20T20:14:47.215Z,18.60
2019-05-20T20:17:16.447Z,18.60
2019-05-20T20:19:45.607Z,18.50
2019-05-20T20:22:14.588Z,18.40
2019-05-20T20:24:43.679Z,18.40
2019-05-20T20:27:12.806Z,18.30
2019-05-20T20:29:41.836Z,18.30
2019-05-20T20:32:10.912Z,18.30
2019-05-20T20:34:39.970Z,18.30
2019-05-20T20:37:09.062Z,18.30
2019-05-20T20:39:38.147Z,18.20
2019-05-20T20:42:07.042Z,18.00
2019-05-20T20:44:36.030Z,17.80
2019-05-20T20:47:05.078Z,17.80
2019-05-20T20:49:34.219Z,17.80
2019-05-20T20:52:03.430Z,17.80
2019-05-20T20:54:32.555Z,17.90
2019-05-20T20:57:01.939Z,17.90
2019-05-20T20:59:31.012Z,17.90
2019-05-20T21:02:01.665Z,17.80
2019-05-20T21:04:30.639Z,17.80
2019-05-20T21:06:59.732Z,17.70
2019-05-20T21:09:28.837Z,17.70
2019-05-20T21:11:57.848Z,17.70
2019-05-20T21:14:26.854Z,17.60
2019-05-20T21:16:55.763Z,17.60
2019-05-20T21:19:24.803Z,17.50
2019-05-20T21:21:53.902Z,17.40
2019-05-20T21:24:23.042Z,17.40
2019-05-20T21:26:52.010Z,17.30
2019-05-20T21:29:21.160Z,17.30
2019-05-20T21:31:50.154Z,17.30
2019-05-20T21:34:19.098Z,17.30
2019-05-20T21:36:48.423Z,17.20
2019-05-20T21:39:17.587Z,17.20
2019-05-20T21:41:46.794Z,17.20
2019-05-20T21:44:15.804Z,17.00
2019-05-20T21:46:46.294Z,16.90
2019-05-20T21:49:15.995Z,16.90
2019-05-20T21:51:46.045Z,16.90
2019-05-20T21:54:14.989Z,16.80
2019-05-20T21:56:44.075Z,16.80
2019-05-20T21:59:13.316Z,16.90
2019-05-20T22:01:42.443Z,16.90
2019-05-20T22:04:11.594Z,16.90
2019-05-20T22:06:40.700Z,16.90
2019-05-20T22:09:09.899Z,17.00
2019-05-20T22:11:38.993Z,17.00
2019-05-20T22:14:08.299Z,16.80
2019-05-20T22:16:37.935Z,16.50
2019-05-20T22:19:07.115Z,16.50
2019-05-20T22:21:51.611Z,16.60
2019-05-20T22:24:20.715Z,16.60
2019-05-20T22:26:49.894Z,16.70
2019-05-20T22:29:18.933Z,16.70
2019-05-20T22:31:47.938Z,16.70
2019-05-20T22:34:16.947Z,16.60
2019-05-20T22:36:46.035Z,16.60
2019-05-20T22:39:15.211Z,16.40
2019-05-20T22:41:44.297Z,16.30
2019-05-20T22:44:13.573Z,16.30
2019-05-20T22:46:42.734Z,16.20
2019-05-20T22:49:11.968Z,16.30
2019-05-20T22:51:42.061Z,16.30
2019-05-20T22:54:15.342Z,16.20
2019-05-20T22:56:45.336Z,16.10
2019-05-20T22:59:15.439Z,16.10
2019-05-20T23:01:45.603Z,16.10
2019-05-20T23:04:17.739Z,16.20
2019-05-20T23:06:47.749Z,16.30
2019-05-20T23:09:17.969Z,16.50
2019-05-20T23:11:48.418Z,16.60
2019-05-20T23:14:18.495Z,16.70
2019-05-20T23:16:48.382Z,16.70
2019-05-20T23:19:18.895Z,16.70
2019-05-20T23:21:49.197Z,16.70
2019-05-20T23:24:18.929Z,16.70
2019-05-20T23:26:49.292Z,16.70
2019-05-20T23:29:19.433Z,16.70
2019-05-20T23:31:49.099Z,16.70
2019-05-20T23:34:19.421Z,16.80
2019-05-20T23:36:49.647Z,16.80
2019-05-20T23:39:19.788Z,16.80
2019-05-20T23:41:50.048Z,16.80
2019-05-20T23:44:20.249Z,16.80
2019-05-20T23:46:50.208Z,16.80
2019-05-20T23:49:20.819Z,16.80
2019-05-20T23:51:51.127Z,16.80
2019-05-20T23:54:21.358Z,16.80
2019-05-20T23:56:51.598Z,16.90
2019-05-20T23:59:23.016Z,16.80
